Traverse City, MI (49686)

6:13 PM EST on February 24, 2017 (GMT -0500)
bunger | | Change Station

Elev 646 ft 44.77 °N, 85.58 °W | Updated 16 seconds ago

Overcast
Overcast
34.0 °F
Feels Like 34 °F
N
2.0
Wind Variable Wind from North
Gusts 8.0 mph

Today
High -- | Low -- °F
--% Chance of Precip.
Yesterday
High -- | Low -- °F
Precip. -- in
Pressure 29.51 in
Visibility 3.0 miles
Clouds Overcast 1300 ft
Windchill 34 °F
Dew Point 33 °F
Humidity 96%
Rainfall 0.09 in
Snow Depth Not available.
7:27 AM 6:23 PM
Waning Crescent, 3% visible
METAR KTVC 242253Z 03007KT 3SM -RA BR OVC013 02/01 A2949 RMK AO2 LTG DSNT NE AND E SLP993 RAB2157 P0003 T00220006
Pressure 29.51 in
Visibility 3.0 miles
Clouds Overcast 1300 ft
Windchill 34 °F
Dew Point 33 °F
Humidity 96%
Rainfall 0.09 in
Snow Depth Not available.
7:27 AM 6:23 PM
Waning Crescent, 3% visible
METAR KTVC 242253Z 03007KT 3SM -RA BR OVC013 02/01 A2949 RMK AO2 LTG DSNT NE AND E SLP993 RAB2157 P0003 T00220006

Get Your Daily Forecast Email!

Thanks for signing up!

Be on the lookout for a verification email in your inbox.

You'll start receiving the daily forecast at 8 AM.

×

10-Day Weather Forecast

Almanac

Astronomy

Feb. 24, 2017 Rise Set
Actual Time
Civil Twilight
Nautical Twilight
Astronomical Twilight
Moon
Length of Visible Light
Length of Day
Tomorrow will be .
, % of the Moon is Illuminated

Today's Extremes

State Highs State Lows

Community

WunderPhotos

Upload Photos

1,962,540 photos uploaded!

WunderBlog® & News

Nearby

Air Quality

  Air Quality AQ Index Pollutant
Not available.

Snow Depth

Station Depth Elevation

Earthquake Activity

City Distance Mag. Time & Date
Minimum magnitude displayed is 2.5.

Coastal Water Temperatures

Place Temperature

Stations

Nearby Weather Stations

Station Location Temp. Windchill Dew Point Humidity Wind Precip. Elev Updated Type
                   

Watches & Warnings

There are currently no watches in effect.